Date,TemperatureHighF,TemperatureAvgF,TemperatureLowF,DewpointHighF,DewpointAvgF,DewpointLowF,HumidityHigh,HumidityAvg,HumidityLow,PressureMaxIn,PressureMinIn,WindSpeedMaxMPH,WindSpeedAvgMPH,GustSpeedMaxMPH,PrecipitationSumIn
2013-5-1,52,38,32,-100,-100,-100,0,0,100,0.00,40.00,0,-999,0,0.00
2013-5-2,53,44,36,-100,-100,-100,0,0,100,0.00,40.00,0,-999,0,0.00
2013-5-3,54,43,32,-100,-100,-100,0,0,100,0.00,40.00,0,-999,0,0.00
2013-5-4,47,43,40,-100,-100,-100,0,0,100,0.00,40.00,0,-999,0,0.00
2013-5-5,60,47,41,-100,-100,-100,0,0,100,0.00,40.00,0,-999,0,0.00
2013-5-6,70,56,37,-100,-100,-100,0,0,100,0.00,40.00,0,-999,0,0.00
2013-5-7,65,57,50,-100,-100,-100,0,0,100,0.00,40.00,0,-999,0,0.00
2013-5-8,65,59,52,-100,-100,-100,0,0,100,0.00,40.00,0,-999,0,0.00
2013-5-9,60,56,50,-100,-100,-100,0,0,100,0.00,40.00,0,-999,0,0.00
2013-5-10,73,58,46,-100,-100,-100,0,0,100,0.00,40.00,0,-999,0,0.00
2013-5-11,64,57,49,-100,-100,-100,0,0,100,0.00,40.00,0,-999,0,0.00
2013-5-12,69,58,41,-100,-100,-100,0,0,100,0.00,40.00,0,-999,0,0.00
2013-5-13,87,68,50,-100,-100,-100,0,0,100,0.00,40.00,0,-999,0,0.00
2013-5-14,99,79,61,-100,-100,-100,0,0,100,0.00,40.00,0,-999,0,0.00
2013-5-15,83,72,61,-100,-100,-100,0,0,100,0.00,40.00,0,-999,0,0.00
2013-5-16,82,70,61,-100,-100,-100,0,0,100,0.00,40.00,0,-999,0,0.00
2013-5-17,87,74,60,-100,-100,-100,0,0,100,0.00,40.00,0,-999,0,0.00
2013-5-18,80,69,63,-100,-100,-100,0,0,100,0.00,40.00,0,-999,0,0.00
2013-5-19,73,65,58,-100,-100,-100,0,0,100,0.00,40.00,0,-999,0,0.00
2013-5-20,72,62,55,-100,-100,-100,0,0,100,0.00,40.00,0,-999,0,0.00
2013-5-21,60,57,51,-100,-100,-100,0,0,100,0.00,40.00,0,-999,0,0.00
2013-5-22,65,53,48,-100,-100,-100,0,0,100,0.00,40.00,0,-999,0,0.00
2013-5-23,70,58,51,-100,-100,-100,0,0,100,0.00,40.00,0,-999,0,0.00
2013-5-24,76,64,54,-100,-100,-100,0,0,100,0.00,40.00,0,-999,0,0.00
2013-5-25,83,69,60,-100,-100,-100,0,0,100,0.00,40.00,0,-999,0,0.00
2013-5-26,81,74,67,-100,-100,-100,0,0,100,0.00,40.00,0,-999,0,0.00
2013-5-27,78,69,62,-100,-100,-100,0,0,100,0.00,40.00,0,-999,0,0.00
2013-5-28,77,69,58,-100,-100,-100,0,0,100,0.00,40.00,0,-999,0,0.00
2013-5-29,73,69,59,-100,-100,-100,0,0,100,0.00,40.00,0,-999,0,0.00
2013-5-30,78,67,58,-100,-100,-100,0,0,100,0.00,40.00,0,-999,0,0.00
2013-5-31,80,67,58,-100,-100,-100,0,0,100,0.00,40.00,0,-999,0,0.00